Time;durP1;ratioP1;P1;durP2;ratioP2;P2;SDS_P1;SDS_P2;PMS_P1;PMS_P2;Temp;Humidity;BMP_temperature;BMP_pressure;BME280_temperature;BME280_humidity;BME280_pressure;Samples;Min_cycle;Max_cycle;Signal;HPM_P1;HPM_P2
2021/08/02 00:01:05;;;;;;;0.43;0.40;;;14.70;91.70;;;;;;5054327;28;20082;-78
2021/08/02 00:03:49;;;;;;;0.60;0.60;;;14.70;91.80;;;;;;5054003;28;20021;-78
2021/08/02 00:06:23;;;;;;;0.52;0.52;;;14.70;91.80;;;;;;5054399;28;20053;-77
2021/08/02 00:09:08;;;;;;;0.57;0.50;;;14.70;91.80;;;;;;5054142;28;20052;-77
2021/08/02 00:11:39;;;;;;;0.73;0.60;;;14.80;91.70;;;;;;5054115;28;20466;-78
2021/08/02 00:14:07;;;;;;;0.80;0.68;;;14.70;91.70;;;;;;5054207;28;20055;-77
2021/08/02 00:16:34;;;;;;;0.80;0.63;;;14.70;91.80;;;;;;5054046;28;20040;-77
2021/08/02 00:19:00;;;;;;;0.82;0.55;;;14.80;91.80;;;;;;5053492;28;20032;-78
2021/08/02 00:21:26;;;;;;;0.63;0.63;;;14.80;91.80;;;;;;5054156;28;20037;-77
2021/08/02 00:23:52;;;;;;;0.70;0.60;;;14.70;91.80;;;;;;5053923;28;20504;-78
2021/08/02 00:26:19;;;;;;;0.65;0.50;;;14.70;91.80;;;;;;5054003;28;20021;-77
2021/08/02 00:28:44;;;;;;;0.60;0.57;;;14.70;92.00;;;;;;5053903;28;20021;-78
2021/08/02 00:31:11;;;;;;;0.50;0.50;;;14.70;91.80;;;;;;5035975;28;20021;-78
2021/08/02 00:33:37;;;;;;;1.55;0.80;;;14.80;91.80;;;;;;5052655;28;20092;-79
2021/08/02 00:36:18;;;;;;;1.58;0.60;;;14.70;91.70;;;;;;5053603;28;20037;-78
2021/08/02 00:39:12;;;;;;;0.38;0.30;;;14.80;91.70;;;;;;5053773;28;20049;-78
2021/08/02 00:42:11;;;;;;;1.17;0.55;;;14.80;91.70;;;;;;5053547;28;20052;-77
2021/08/02 00:44:48;;;;;;;0.63;0.60;;;14.80;91.70;;;;;;5053817;28;20029;-78
2021/08/02 00:47:19;;;;;;;0.57;0.57;;;14.80;91.70;;;;;;5053091;28;20121;-78
2021/08/02 00:49:51;;;;;;;0.45;0.45;;;14.80;91.70;;;;;;5053249;28;20032;-77
2021/08/02 00:52:20;;;;;;;0.65;0.65;;;14.80;91.70;;;;;;5053576;28;20459;-78
2021/08/02 00:54:47;;;;;;;0.82;0.47;;;14.80;91.60;;;;;;5053320;28;20041;-78
2021/08/02 00:57:13;;;;;;;0.75;0.60;;;14.80;91.60;;;;;;5035559;28;20049;-77
2021/08/02 00:59:41;;;;;;;1.05;0.60;;;14.80;91.60;;;;;;5053305;28;20025;-78
2021/08/02 01:02:08;;;;;;;0.57;0.50;;;14.80;91.60;;;;;;5052732;28;20068;-78
2021/08/02 01:04:36;;;;;;;0.93;0.65;;;14.80;91.60;;;;;;5053226;28;20108;-77
2021/08/02 01:07:04;;;;;;;0.88;0.57;;;14.80;91.60;;;;;;5053338;28;20025;-78
2021/08/02 01:09:31;;;;;;;0.70;0.70;;;14.80;91.60;;;;;;5053324;28;20075;-78
2021/08/02 01:11:59;;;;;;;0.50;0.50;;;14.80;91.60;;;;;;5053045;28;20021;-78
2021/08/02 01:14:25;;;;;;;0.80;0.80;;;14.80;91.60;;;;;;5053230;28;20029;-78
2021/08/02 01:16:53;;;;;;;0.47;0.47;;;14.80;91.70;;;;;;5052776;28;20013;-78
2021/08/02 01:19:19;;;;;;;0.40;0.40;;;14.80;91.70;;;;;;5053197;28;20029;-78
2021/08/02 01:21:48;;;;;;;0.73;0.70;;;14.70;91.70;;;;;;5053062;28;20036;-78
2021/08/02 01:24:15;;;;;;;0.70;0.70;;;14.70;91.70;;;;;;5053095;28;20087;-78
2021/08/02 01:26:44;;;;;;;1.10;0.70;;;14.70;91.70;;;;;;5053277;28;20428;-77
2021/08/02 01:29:47;;;;;;;0.40;0.40;;;14.70;91.70;;;;;;5053011;28;20021;-78
2021/08/02 01:32:17;;;;;;;1.20;0.63;;;14.70;91.70;;;;;;5052516;28;20377;-78
2021/08/02 01:34:44;;;;;;;0.90;0.52;;;14.70;91.70;;;;;;5052926;28;20489;-78
2021/08/02 01:37:10;;;;;;;0.32;0.30;;;14.70;91.70;;;;;;5052880;28;20053;-78
2021/08/02 01:39:36;;;;;;;0.70;0.47;;;14.70;91.60;;;;;;5052967;28;20389;-77
2021/08/02 01:42:03;;;;;;;0.65;0.52;;;14.80;91.70;;;;;;5052824;28;20041;-78
2021/08/02 01:44:29;;;;;;;0.70;0.70;;;14.80;91.60;;;;;;5052907;28;20099;-78
2021/08/02 01:47:08;;;;;;;0.60;0.60;;;14.80;91.60;;;;;;5056876;28;20061;-78
2021/08/02 01:50:01;;;;;;;0.17;0.17;;;14.90;91.60;;;;;;5039075;28;20033;-78
2021/08/02 01:52:34;;;;;;;0.55;0.47;;;14.90;91.60;;;;;;5056676;28;20056;-78
2021/08/02 01:55:06;;;;;;;0.50;0.50;;;14.80;91.60;;;;;;5056572;28;20044;-78
2021/08/02 01:57:43;;;;;;;0.38;0.38;;;14.80;91.60;;;;;;5056713;28;20083;-78
2021/08/02 02:00:12;;;;;;;0.45;0.45;;;14.80;91.60;;;;;;5056145;28;20086;-77
2021/08/02 02:02:39;;;;;;;0.70;0.68;;;14.80;91.60;;;;;;5056630;28;20025;-77
2021/08/02 02:05:11;;;;;;;0.88;0.60;;;14.80;91.60;;;;;;5056629;28;20366;-77
2021/08/02 02:07:57;;;;;;;0.68;0.50;;;14.90;91.60;;;;;;5056586;28;20021;-77
2021/08/02 02:10:26;;;;;;;0.40;0.40;;;14.80;91.60;;;;;;5056429;28;20079;-77
2021/08/02 02:12:53;;;;;;;0.28;0.22;;;14.80;91.60;;;;;;5038450;28;20025;-77
2021/08/02 02:15:19;;;;;;;0.90;0.70;;;14.80;91.60;;;;;;5055953;28;20035;-77
2021/08/02 02:17:45;;;;;;;0.50;0.50;;;14.80;91.70;;;;;;5056334;28;20028;-77
2021/08/02 02:20:13;;;;;;;1.38;0.60;;;14.80;91.60;;;;;;5056285;28;20017;-77
2021/08/02 02:22:39;;;;;;;1.05;0.70;;;14.90;91.60;;;;;;5056168;28;20029;-77
2021/08/02 02:25:07;;;;;;;1.00;0.73;;;14.90;91.60;;;;;;5056281;28;20143;-77
2021/08/02 02:27:34;;;;;;;0.80;0.80;;;14.90;91.60;;;;;;5056110;28;20040;-77
2021/08/02 02:30:03;;;;;;;1.05;1.00;;;14.90;91.60;;;;;;5055548;28;20133;-77
2021/08/02 02:32:31;;;;;;;0.60;0.60;;;14.90;91.60;;;;;;5056026;28;20021;-77
2021/08/02 02:34:58;;;;;;;0.60;0.50;;;14.90;91.60;;;;;;5056020;28;20106;-77
2021/08/02 02:37:25;;;;;;;1.98;0.60;;;14.90;91.60;;;;;;5038065;28;20641;-77
2021/08/02 02:39:53;;;;;;;0.70;0.70;;;14.90;91.60;;;;;;5056048;28;20029;-78
2021/08/02 02:42:22;;;;;;;0.25;0.25;;;14.90;91.60;;;;;;5055271;28;20069;-77
2021/08/02 02:44:48;;;;;;;0.60;0.60;;;14.90;91.90;;;;;;5056109;28;20075;-78
2021/08/02 02:47:14;;;;;;;1.02;0.60;;;14.90;91.60;;;;;;5055771;28;20035;-77
2021/08/02 02:49:40;;;;;;;0.57;0.50;;;15.00;91.60;;;;;;5055813;28;20385;-77
2021/08/02 02:52:07;;;;;;;0.40;0.40;;;15.00;91.60;;;;;;5055761;28;20025;-77
2021/08/02 02:54:34;;;;;;;0.65;0.50;;;15.00;91.60;;;;;;5055318;28;20052;-77
2021/08/02 02:57:01;;;;;;;0.47;0.35;;;14.90;91.60;;;;;;5054629;28;20032;-77
2021/08/02 02:59:27;;;;;;;0.50;0.50;;;14.90;91.60;;;;;;5055577;28;20039;-78
2021/08/02 03:01:54;;;;;;;0.40;0.40;;;14.90;91.60;;;;;;5055452;28;20115;-78
2021/08/02 03:04:22;;;;;;;2.97;0.60;;;14.90;91.60;;;;;;5055641;28;20044;-78
2021/08/02 03:06:49;;;;;;;0.30;0.30;;;14.90;91.60;;;;;;5055550;28;20032;-78
2021/08/02 03:09:18;;;;;;;2.55;0.47;;;14.90;91.60;;;;;;5055356;28;20021;-78
2021/08/02 03:11:45;;;;;;;;;;;14.90;91.60;;;;;;5037361;28;20484;-78
2021/08/02 03:14:11;;;;;;;1.15;0.95;;;14.90;91.70;;;;;;5055353;28;19944;-78
2021/08/02 03:16:36;;;;;;;0.57;0.47;;;14.90;91.70;;;;;;5055165;28;20022;-77
2021/08/02 03:19:03;;;;;;;0.50;0.50;;;14.90;91.60;;;;;;5055305;28;20492;-78
2021/08/02 03:21:28;;;;;;;0.73;0.63;;;14.90;91.60;;;;;;5055330;28;20033;-78
2021/08/02 03:24:10;;;;;;;0.40;0.40;;;15.00;91.60;;;;;;5055032;28;20492;-78
2021/08/02 03:26:43;;;;;;;0.60;0.55;;;15.00;91.50;;;;;;5054671;28;20032;-78
2021/08/02 03:29:17;;;;;;;0.47;0.45;;;15.00;91.50;;;;;;5037114;28;20017;-79
2021/08/02 03:31:48;;;;;;;0.75;0.50;;;15.00;91.50;;;;;;5055160;28;20376;-78
2021/08/02 03:34:19;;;;;;;0.50;0.50;;;15.00;91.50;;;;;;5055115;28;20062;-78
2021/08/02 03:36:45;;;;;;;0.20;0.20;;;15.00;91.50;;;;;;5054725;28;20385;-78
2021/08/02 03:39:13;;;;;;;0.50;0.50;;;15.00;91.60;;;;;;5054832;28;20021;-78
2021/08/02 03:41:41;;;;;;;0.43;0.40;;;15.00;91.60;;;;;;5054244;28;20028;-78
2021/08/02 03:44:09;;;;;;;0.20;0.20;;;15.10;91.60;;;;;;5054756;28;20087;-78
2021/08/02 03:46:35;;;;;;;0.45;0.45;;;15.10;91.60;;;;;;5054821;28;20474;-78
2021/08/02 03:49:01;;;;;;;0.40;0.40;;;15.00;91.60;;;;;;5054681;28;20054;-78
2021/08/02 03:51:42;;;;;;;0.40;0.40;;;15.00;91.50;;;;;;5054733;28;20032;-78
2021/08/02 03:54:07;;;;;;;0.22;0.22;;;15.00;91.50;;;;;;5054172;28;20105;-78
2021/08/02 03:56:34;;;;;;;0.40;0.32;;;15.10;91.60;;;;;;5036186;28;20033;-78
2021/08/02 03:58:59;;;;;;;0.52;0.50;;;15.10;91.50;;;;;;5054455;28;20488;-78
2021/08/02 04:01:25;;;;;;;0.70;0.60;;;15.10;91.50;;;;;;5054370;28;20029;-78
2021/08/02 04:03:50;;;;;;;0.50;0.50;;;15.10;91.70;;;;;;5054536;28;20021;-78
2021/08/02 04:06:16;;;;;;;0.50;0.50;;;15.10;91.60;;;;;;5054225;28;20017;-78
2021/08/02 04:08:42;;;;;;;0.75;0.75;;;15.10;91.60;;;;;;5053458;28;20052;-78
2021/08/02 04:11:08;;;;;;;0.77;0.60;;;15.00;91.60;;;;;;5053705;28;20013;-78
2021/08/02 04:13:33;;;;;;;0.60;0.60;;;15.00;91.60;;;;;;5054321;28;20053;-78
2021/08/02 04:15:59;;;;;;;0.47;0.47;;;15.00;91.60;;;;;;5053940;28;20047;-79
2021/08/02 04:18:24;;;;;;;0.30;0.30;;;15.00;91.60;;;;;;5054218;28;20079;-78
2021/08/02 04:20:51;;;;;;;0.40;0.40;;;15.00;91.60;;;;;;5053976;28;20080;-78
2021/08/02 04:23:17;;;;;;;0.85;0.70;;;15.00;91.60;;;;;;5054263;28;20025;-78
2021/08/02 04:25:42;;;;;;;0.88;0.43;;;15.00;91.60;;;;;;5053494;28;20389;-78
2021/08/02 04:28:08;;;;;;;0.32;0.32;;;15.00;91.60;;;;;;5053936;28;20433;-78
2021/08/02 04:30:34;;;;;;;0.40;0.40;;;15.00;91.60;;;;;;5053654;28;20047;-78
2021/08/02 04:32:59;;;;;;;0.40;0.40;;;14.90;91.70;;;;;;5053676;28;20098;-78
2021/08/02 04:35:25;;;;;;;0.35;0.35;;;14.90;92.00;;;;;;5053943;28;20033;-78
2021/08/02 04:37:50;;;;;;;0.63;0.63;;;14.90;91.70;;;;;;5053783;28;20036;-77
2021/08/02 04:40:16;;;;;;;0.45;0.45;;;14.90;91.70;;;;;;5035255;28;20017;-78
2021/08/02 04:42:41;;;;;;;0.85;0.60;;;15.00;91.70;;;;;;5053696;28;20037;-78
2021/08/02 04:45:07;;;;;;;0.95;0.60;;;15.00;91.60;;;;;;5053636;28;20017;-78
2021/08/02 04:47:33;;;;;;;0.40;0.40;;;15.00;91.60;;;;;;5053699;28;20025;-78
2021/08/02 04:49:59;;;;;;;0.60;0.47;;;15.00;91.60;;;;;;5053430;28;20096;-78
2021/08/02 04:52:24;;;;;;;0.70;0.60;;;15.00;91.50;;;;;;5053478;28;20025;-77
2021/08/02 04:54:50;;;;;;;0.50;0.50;;;15.00;91.50;;;;;;5052795;28;20055;-77
2021/08/02 04:57:16;;;;;;;0.45;0.45;;;15.00;91.50;;;;;;5053515;28;20083;-78
2021/08/02 04:59:42;;;;;;;0.22;0.20;;;15.00;91.50;;;;;;5053484;28;20108;-77
2021/08/02 05:02:08;;;;;;;1.00;0.60;;;15.00;91.50;;;;;;5053489;28;20393;-78
2021/08/02 05:04:33;;;;;;;0.50;0.30;;;15.00;91.60;;;;;;5053323;28;20017;-78
2021/08/02 05:06:59;;;;;;;0.43;0.43;;;15.00;91.60;;;;;;5053271;28;20033;-78
2021/08/02 05:09:24;;;;;;;0.98;0.40;;;15.00;91.50;;;;;;5052768;28;20074;-78
2021/08/02 05:11:53;;;;;;;0.30;0.30;;;15.00;91.50;;;;;;5053291;28;20474;-77
2021/08/02 05:14:19;;;;;;;0.40;0.40;;;15.00;91.60;;;;;;5035326;28;20111;-78
2021/08/02 05:16:44;;;;;;;0.30;0.30;;;15.00;91.60;;;;;;5053130;28;20342;-77
2021/08/02 05:19:11;;;;;;;0.70;0.38;;;15.00;91.60;;;;;;5052957;28;20025;-78
2021/08/02 05:21:36;;;;;;;0.43;0.40;;;14.90;91.60;;;;;;5053059;28;20056;-77
2021/08/02 05:24:02;;;;;;;0.50;0.50;;;14.90;91.60;;;;;;5052701;28;20032;-78
2021/08/02 05:26:27;;;;;;;0.73;0.52;;;14.90;91.70;;;;;;5053183;28;20033;-78
2021/08/02 05:28:53;;;;;;;0.35;0.30;;;14.90;91.70;;;;;;5053071;28;20025;-77
2021/08/02 05:31:18;;;;;;;0.20;0.20;;;14.90;91.70;;;;;;5052965;28;20378;-78
2021/08/02 05:33:44;;;;;;;0.35;0.35;;;14.90;91.70;;;;;;5035170;28;20033;-78
2021/08/02 05:36:10;;;;;;;0.40;0.40;;;14.90;91.70;;;;;;5053146;28;20025;-78
2021/08/02 05:38:35;;;;;;;0.57;0.40;;;14.90;91.70;;;;;;5052538;28;20051;-78
2021/08/02 05:41:00;;;;;;;1.23;0.60;;;14.90;91.60;;;;;;5052826;28;20095;-78
2021/08/02 05:43:26;;;;;;;0.43;0.43;;;14.90;91.70;;;;;;5052713;28;20551;-77
2021/08/02 05:45:52;;;;;;;0.38;0.38;;;14.90;91.70;;;;;;5052854;28;20048;-78
2021/08/02 05:48:18;;;;;;;0.40;0.40;;;15.00;91.70;;;;;;5052797;28;20025;-78
2021/08/02 05:50:43;;;;;;;0.88;0.75;;;15.00;91.70;;;;;;5052918;28;20049;-77
2021/08/02 05:53:09;;;;;;;0.25;0.25;;;15.00;91.60;;;;;;5052423;28;20025;-78
2021/08/02 05:55:35;;;;;;;0.40;0.40;;;15.10;91.60;;;;;;5052458;28;20498;-78
2021/08/02 05:58:01;;;;;;;0.60;0.57;;;15.20;91.60;;;;;;5052822;28;20064;-78
2021/08/02 06:00:26;;;;;;;0.90;0.50;;;15.30;91.50;;;;;;5052792;28;20104;-78
2021/08/02 06:02:52;;;;;;;0.40;0.40;;;15.40;91.40;;;;;;5052725;28;20508;-79
2021/08/02 06:05:17;;;;;;;0.43;0.43;;;15.50;91.30;;;;;;5052571;28;20021;-78
2021/08/02 06:07:43;;;;;;;1.10;0.60;;;15.50;91.30;;;;;;5052184;28;20104;-78
2021/08/02 06:10:13;;;;;;;0.88;0.57;;;15.60;91.30;;;;;;5052714;28;20104;-78
2021/08/02 06:12:39;;;;;;;3.70;0.50;;;15.70;91.30;;;;;;5052685;28;20120;-79
2021/08/02 06:15:06;;;;;;;0.47;0.47;;;15.70;91.20;;;;;;5052593;28;20462;-78
2021/08/02 06:17:32;;;;;;;0.52;0.38;;;15.70;91.20;;;;;;5052433;28;20543;-77
2021/08/02 06:19:57;;;;;;;0.43;0.40;;;15.80;91.30;;;;;;5052100;28;20056;-78
2021/08/02 06:22:23;;;;;;;0.82;0.57;;;15.70;91.30;;;;;;5052587;28;20029;-78
2021/08/02 06:24:48;;;;;;;0.30;0.30;;;15.70;91.30;;;;;;5052553;28;20040;-78
2021/08/02 06:27:14;;;;;;;0.40;0.40;;;15.80;91.30;;;;;;5052545;28;20493;-78
2021/08/02 06:29:39;;;;;;;1.10;0.50;;;15.80;91.30;;;;;;5052481;28;20588;-78
2021/08/02 06:32:07;;;;;;;0.60;0.60;;;15.90;91.30;;;;;;5055130;28;20086;-77
2021/08/02 06:34:33;;;;;;;0.50;0.50;;;15.90;91.30;;;;;;5055481;28;20051;-77
2021/08/02 06:36:58;;;;;;;0.35;0.35;;;15.90;91.20;;;;;;5056070;28;20494;-77
2021/08/02 06:39:24;;;;;;;0.70;0.32;;;16.00;91.20;;;;;;5056068;28;20027;-77
2021/08/02 06:41:49;;;;;;;0.43;0.40;;;16.00;91.20;;;;;;5055701;28;20037;-77
2021/08/02 06:44:15;;;;;;;1.02;0.50;;;16.10;91.20;;;;;;5055974;28;20025;-78
2021/08/02 06:46:40;;;;;;;0.32;0.32;;;16.10;91.20;;;;;;5055767;28;20029;-77
2021/08/02 06:49:06;;;;;;;0.32;0.32;;;16.20;91.30;;;;;;5055420;28;20052;-77
2021/08/02 06:51:31;;;;;;;0.30;0.30;;;16.20;91.20;;;;;;5055793;28;20052;-77
2021/08/02 06:53:57;;;;;;;0.20;0.20;;;16.30;91.10;;;;;;5055524;28;20049;-78
2021/08/02 06:56:23;;;;;;;0.30;0.30;;;16.40;91.10;;;;;;5055674;28;20029;-77
2021/08/02 06:58:49;;;;;;;0.40;0.40;;;16.40;91.10;;;;;;5055615;28;20078;-78
2021/08/02 07:01:14;;;;;;;0.28;0.28;;;16.50;91.10;;;;;;5055556;28;20037;-77
2021/08/02 07:03:40;;;;;;;0.80;0.38;;;16.50;91.10;;;;;;5037162;28;20389;-77
2021/08/02 07:06:06;;;;;;;0.30;0.30;;;16.50;91.10;;;;;;5055543;28;20620;-78
2021/08/02 07:08:31;;;;;;;0.30;0.30;;;16.60;91.10;;;;;;5055206;28;20025;-76
2021/08/02 07:10:57;;;;;;;0.30;0.30;;;16.60;91.10;;;;;;5037491;28;20385;-77
2021/08/02 07:13:23;;;;;;;0.40;0.40;;;16.60;91.10;;;;;;5055591;28;20096;-77
2021/08/02 07:15:48;;;;;;;1.08;0.50;;;16.70;91.10;;;;;;5055509;28;20021;-78
2021/08/02 07:18:14;;;;;;;0.30;0.30;;;16.80;91.00;;;;;;5054636;28;20021;-77
2021/08/02 07:20:40;;;;;;;0.38;0.38;;;16.90;91.00;;;;;;5055123;28;20092;-78
2021/08/02 07:23:05;;;;;;;0.40;0.40;;;17.00;90.90;;;;;;5055210;28;20493;-77
2021/08/02 07:25:31;;;;;;;0.30;0.30;;;17.10;90.80;;;;;;5055026;28;20013;-77
2021/08/02 07:27:57;;;;;;;0.30;0.30;;;17.30;90.70;;;;;;5054922;28;20502;-77
2021/08/02 07:30:22;;;;;;;0.68;0.52;;;17.40;90.60;;;;;;5037151;28;20033;-77
2021/08/02 07:32:48;;;;;;;0.45;0.40;;;17.50;90.90;;;;;;5036739;28;20492;-78
2021/08/02 07:35:14;;;;;;;0.73;0.60;;;17.60;90.50;;;;;;5054848;28;20083;-77
2021/08/02 07:37:40;;;;;;;0.38;0.38;;;17.60;90.50;;;;;;5054745;28;20021;-78
2021/08/02 07:40:07;;;;;;;0.35;0.35;;;17.60;90.50;;;;;;5054918;28;20029;-78
2021/08/02 07:42:33;;;;;;;0.25;0.25;;;17.60;90.50;;;;;;5054460;28;20041;-78
2021/08/02 07:44:58;;;;;;;0.30;0.30;;;17.70;90.50;;;;;;5054630;28;20024;-78
2021/08/02 07:47:24;;;;;;;0.30;0.30;;;17.80;90.40;;;;;;5036254;28;20112;-78
2021/08/02 07:49:49;;;;;;;1.23;0.30;;;17.80;90.30;;;;;;5054605;28;20022;-77
2021/08/02 07:52:15;;;;;;;3.17;0.40;;;17.70;90.40;;;;;;5054632;28;20035;-77
2021/08/02 07:54:40;;;;;;;0.45;0.38;;;17.80;90.40;;;;;;5054308;28;20041;-77
2021/08/02 07:57:06;;;;;;;0.70;0.43;;;17.80;90.40;;;;;;5036462;28;20036;-77
2021/08/02 07:59:32;;;;;;;0.40;0.40;;;17.90;90.30;;;;;;5054569;28;20072;-77
2021/08/02 08:01:59;;;;;;;0.20;0.20;;;18.00;90.30;;;;;;5053820;28;20103;-77
2021/08/02 08:04:25;;;;;;;0.30;0.30;;;18.10;90.30;;;;;;5054417;28;20013;-77
2021/08/02 08:06:50;;;;;;;0.30;0.28;;;18.10;90.10;;;;;;5054302;28;20035;-77
2021/08/02 08:09:16;;;;;;;0.30;0.30;;;18.20;90.20;;;;;;5054405;28;20017;-78
2021/08/02 08:11:41;;;;;;;0.40;0.38;;;18.20;90.10;;;;;;5054153;28;20494;-79
2021/08/02 08:14:07;;;;;;;0.20;0.20;;;18.30;90.00;;;;;;5054198;28;20021;-78
2021/08/02 08:16:33;;;;;;;0.30;0.30;;;18.30;90.10;;;;;;5053605;28;20104;-78
2021/08/02 08:18:58;;;;;;;0.63;0.57;;;18.30;90.10;;;;;;5053929;28;20023;-79
2021/08/02 08:21:24;;;;;;;0.73;0.50;;;18.20;90.00;;;;;;5054022;28;20025;-78
2021/08/02 08:23:49;;;;;;;0.70;0.40;;;18.10;90.10;;;;;;5053996;28;20086;-78
2021/08/02 08:26:18;;;;;;;0.20;0.20;;;18.20;90.10;;;;;;5053814;28;20029;-79
2021/08/02 08:28:44;;;;;;;1.00;0.50;;;18.30;90.10;;;;;;5053716;28;20021;-79
2021/08/02 08:31:09;;;;;;;0.30;0.30;;;18.50;89.80;;;;;;5053386;28;20047;-78
2021/08/02 08:33:35;;;;;;;0.65;0.60;;;18.60;89.50;;;;;;5035930;28;20021;-78
2021/08/02 08:36:00;;;;;;;0.68;0.50;;;18.80;89.30;;;;;;5053859;28;20025;-78
2021/08/02 08:38:26;;;;;;;0.95;0.52;;;18.80;89.10;;;;;;5053733;28;20017;-78
2021/08/02 08:40:53;;;;;;;0.40;0.40;;;18.80;89.20;;;;;;5053433;28;20040;-78
2021/08/02 08:43:19;;;;;;;0.38;0.38;;;18.70;89.90;;;;;;5053664;28;20021;-81
2021/08/02 08:45:46;;;;;;;0.52;0.47;;;18.70;89.10;;;;;;5053139;28;20043;-80
2021/08/02 08:48:12;;;;;;;0.65;0.52;;;18.50;89.40;;;;;;5053492;28;20052;-80
2021/08/02 08:50:39;;;;;;;0.38;0.38;;;18.40;89.70;;;;;;5053865;28;20064;-79
2021/08/02 08:53:05;;;;;;;0.45;0.45;;;18.30;89.90;;;;;;5053169;28;20371;-79
2021/08/02 08:55:31;;;;;;;0.43;0.43;;;18.30;89.90;;;;;;5053133;28;20045;-79
2021/08/02 08:58:00;;;;;;;1.17;0.40;;;18.30;89.90;;;;;;5053228;28;20051;-79
2021/08/02 09:00:26;;;;;;;0.70;0.60;;;18.30;89.80;;;;;;5052872;28;20078;-79
2021/08/02 09:02:53;;;;;;;0.73;0.40;;;18.30;89.60;;;;;;5053300;28;20032;-79
2021/08/02 09:05:20;;;;;;;0.93;0.40;;;18.20;89.70;;;;;;5053206;28;20025;-79
2021/08/02 09:07:46;;;;;;;0.30;0.30;;;18.20;89.90;;;;;;5053311;28;20028;-79
2021/08/02 09:10:17;;;;;;;0.50;0.50;;;18.30;89.90;;;;;;5035242;28;20032;-79
2021/08/02 09:12:55;;;;;;;0.30;0.30;;;18.30;89.70;;;;;;5053219;28;20072;-79
2021/08/02 09:15:42;;;;;;;0.17;0.17;;;18.40;89.50;;;;;;5052688;28;20032;-79
2021/08/02 09:18:10;;;;;;;0.55;0.25;;;18.50;89.40;;;;;;5053037;28;20052;-79
2021/08/02 09:20:37;;;;;;;1.00;0.40;;;18.50;89.30;;;;;;5053181;28;20469;-78
2021/08/02 09:23:15;;;;;;;0.55;0.55;;;18.70;89.10;;;;;;5052952;28;20048;-79
2021/08/02 09:25:52;;;;;;;0.20;0.20;;;18.80;88.70;;;;;;5052972;28;20017;-79
2021/08/02 09:28:23;;;;;;;0.30;0.30;;;19.00;88.30;;;;;;5053189;28;20033;-79
2021/08/02 09:30:56;;;;;;;0.43;0.20;;;19.20;88.00;;;;;;5053016;28;20032;-79
2021/08/02 09:33:23;;;;;;;0.20;0.20;;;19.20;87.70;;;;;;5053125;28;20021;-79
2021/08/02 09:35:51;;;;;;;0.28;0.28;;;19.30;87.90;;;;;;5034964;28;20021;-79
2021/08/02 09:38:19;;;;;;;0.22;0.22;;;19.40;87.90;;;;;;5052917;28;20020;-79
2021/08/02 09:40:56;;;;;;;0.33;0.27;;;19.50;87.60;;;;;;5035079;28;20013;-79
2021/08/02 09:43:24;;;;;;;0.38;0.30;;;19.50;87.60;;;;;;5052455;28;20025;-79
2021/08/02 09:45:52;;;;;;;0.20;0.20;;;19.50;87.60;;;;;;5052650;28;20100;-79
2021/08/02 09:48:19;;;;;;;0.10;0.10;;;19.50;87.70;;;;;;5052885;28;20029;-78
2021/08/02 09:50:49;;;;;;;0.45;0.45;;;19.40;87.80;;;;;;5035046;28;20029;-79
2021/08/02 09:53:20;;;;;;;0.38;0.38;;;19.40;88.00;;;;;;5034885;28;20482;-79
2021/08/02 09:55:47;;;;;;;0.30;0.30;;;19.40;87.90;;;;;;5034808;28;20049;-79
2021/08/02 09:58:18;;;;;;;0.30;0.30;;;19.30;88.20;;;;;;5052223;28;20048;-79
2021/08/02 10:00:45;;;;;;;0.45;0.40;;;19.20;88.10;;;;;;5052560;28;20025;-79
2021/08/02 10:03:11;;;;;;;0.20;0.20;;;19.10;88.20;;;;;;5034752;28;20505;-79
2021/08/02 10:05:38;;;;;;;0.32;0.32;;;19.00;88.40;;;;;;5053314;28;20056;-79
2021/08/02 10:08:05;;;;;;;0.40;0.32;;;18.90;88.60;;;;;;5056487;28;20300;-79
2021/08/02 10:10:31;;;;;;;0.40;0.40;;;18.80;88.60;;;;;;5056411;28;20068;-79
2021/08/02 10:12:57;;;;;;;0.30;0.30;;;18.80;88.70;;;;;;5056049;28;20029;-79
2021/08/02 10:15:29;;;;;;;0.40;0.40;;;18.70;88.70;;;;;;5056443;28;20039;-80
2021/08/02 10:18:00;;;;;;;0.65;0.43;;;18.60;88.50;;;;;;5038676;28;20435;-80
2021/08/02 10:20:28;;;;;;;0.88;0.40;;;18.50;89.00;;;;;;5038327;28;20443;-78
2021/08/02 10:22:55;;;;;;;0.20;0.20;;;18.40;89.10;;;;;;5056071;28;20032;-79
2021/08/02 10:25:37;;;;;;;0.20;0.20;;;18.50;89.20;;;;;;5056218;28;20029;-78
2021/08/02 10:28:11;;;;;;;0.57;0.20;;;18.70;88.60;;;;;;5055825;28;20036;-79
2021/08/02 10:30:38;;;;;;;1.38;0.75;;;18.90;88.00;;;;;;5038282;28;20017;-79
2021/08/02 10:33:04;;;;;;;0.35;0.35;;;19.00;88.00;;;;;;5056052;28;20035;-79
2021/08/02 10:35:35;;;;;;;0.20;0.20;;;19.20;87.60;;;;;;5056012;28;20092;-80
2021/08/02 10:38:05;;;;;;;0.22;0.22;;;19.50;87.20;;;;;;5056201;28;20033;-79
2021/08/02 10:40:42;;;;;;;0.10;0.10;;;19.70;87.00;;;;;;5055901;28;20025;-80
2021/08/02 10:43:08;;;;;;;0.40;0.40;;;20.00;86.60;;;;;;5055563;28;20025;-80
2021/08/02 10:45:34;;;;;;;0.25;0.25;;;20.10;86.10;;;;;;5055637;28;20021;-80
2021/08/02 10:48:00;;;;;;;0.25;0.25;;;20.10;86.20;;;;;;5055803;28;20056;-79
2021/08/02 10:50:30;;;;;;;0.17;0.17;;;20.10;86.20;;;;;;5055981;28;20032;-80
2021/08/02 10:52:55;;;;;;;;;;;20.10;86.50;;;;;;5056257;28;20433;-79
2021/08/02 10:55:21;;;;;;;0.35;0.35;;;20.20;86.90;;;;;;5055044;28;19956;-79
2021/08/02 10:58:00;;;;;;;0.20;0.20;;;20.50;86.10;;;;;;5055676;28;20470;-80
2021/08/02 11:00:27;;;;;;;0.40;0.40;;;20.60;85.70;;;;;;5055411;28;20025;-80
2021/08/02 11:02:58;;;;;;;0.55;0.47;;;20.70;85.50;;;;;;5055651;28;20797;-80
2021/08/02 11:05:32;;;;;;;0.30;0.30;;;20.90;85.50;;;;;;5055512;28;20029;-79
2021/08/02 11:08:05;;;;;;;0.68;0.40;;;21.00;85.30;;;;;;5055777;28;20384;-82
2021/08/02 11:10:32;;;;;;;0.68;0.50;;;20.90;84.70;;;;;;5054950;28;20048;-81
2021/08/02 11:12:58;;;;;;;0.52;0.40;;;20.60;85.70;;;;;;5055597;28;20422;-80
2021/08/02 11:15:24;;;;;;;0.30;0.30;;;20.40;86.30;;;;;;5055304;28;20652;-79
2021/08/02 11:17:53;;;;;;;0.65;0.43;;;20.60;86.20;;;;;;5036971;28;20111;-80
2021/08/02 11:20:20;;;;;;;0.52;0.40;;;20.70;85.70;;;;;;5055191;28;20029;-79
2021/08/02 11:22:54;;;;;;;0.40;0.40;;;20.90;85.40;;;;;;5055211;28;20533;-79
2021/08/02 11:25:28;;;;;;;0.30;0.30;;;20.90;85.40;;;;;;5054687;28;20024;-80
2021/08/02 11:27:55;;;;;;;0.30;0.30;;;20.90;85.20;;;;;;5055112;28;20398;-79
2021/08/02 11:30:22;;;;;;;0.28;0.28;;;20.90;85.30;;;;;;5055011;28;20017;-79
2021/08/02 11:32:48;;;;;;;0.28;0.28;;;20.90;85.50;;;;;;5055034;28;20017;-80
2021/08/02 11:35:14;;;;;;;0.43;0.22;;;21.20;85.50;;;;;;5037070;28;20490;-79
2021/08/02 11:37:42;;;;;;;0.35;0.35;;;21.50;84.80;;;;;;5036900;28;20017;-80
2021/08/02 11:40:12;;;;;;;0.38;0.38;;;21.60;84.30;;;;;;5036453;28;20021;-79
2021/08/02 11:42:40;;;;;;;0.20;0.20;;;21.60;84.60;;;;;;5036850;28;20053;-79
2021/08/02 11:45:07;;;;;;;0.50;0.30;;;21.40;84.60;;;;;;5054884;28;20410;-80
2021/08/02 11:47:36;;;;;;;0.30;0.30;;;21.20;84.70;;;;;;5054816;28;20533;-80
2021/08/02 11:50:04;;;;;;;0.40;0.40;;;21.10;85.20;;;;;;5054687;28;20025;-80
2021/08/02 11:52:30;;;;;;;0.30;0.30;;;21.30;85.30;;;;;;5054452;28;20394;-80
2021/08/02 11:55:00;;;;;;;0.28;0.28;;;21.40;84.90;;;;;;5053860;28;20516;-80
2021/08/02 11:57:26;;;;;;;0.77;0.30;;;21.60;84.60;;;;;;5054530;28;20040;-80
2021/08/02 12:00:10;;;;;;;0.20;0.20;;;21.70;84.30;;;;;;5036793;28;20013;-79
2021/08/02 12:02:41;;;;;;;0.22;0.22;;;21.80;84.30;;;;;;5054409;28;20477;-80
2021/08/02 12:05:17;;;;;;;0.20;0.20;;;22.00;83.80;;;;;;5054359;28;20082;-81
2021/08/02 12:07:43;;;;;;;0.65;0.45;;;22.30;83.30;;;;;;5054260;28;20021;-81
2021/08/02 12:10:22;;;;;;;0.20;0.20;;;22.30;82.70;;;;;;5053907;28;20351;-80
2021/08/02 12:13:11;;;;;;;0.20;0.20;;;22.30;82.80;;;;;;5054183;28;20029;-80
2021/08/02 12:15:48;;;;;;;0.30;0.30;;;22.20;83.00;;;;;;5054156;28;20021;-80
2021/08/02 12:18:21;;;;;;;0.15;0.15;;;22.00;83.20;;;;;;5054286;28;20029;-80
2021/08/02 12:20:46;;;;;;;0.25;0.17;;;21.80;83.50;;;;;;5054039;28;20098;-80
2021/08/02 12:23:22;;;;;;;0.60;0.60;;;21.70;83.60;;;;;;5053537;28;20480;-80
2021/08/02 12:25:48;;;;;;;0.47;0.30;;;21.80;83.40;;;;;;5054101;28;20090;-80
2021/08/02 12:28:15;;;;;;;0.25;0.10;;;21.90;83.20;;;;;;5053338;28;20104;-80
2021/08/02 12:30:43;;;;;;;0.40;0.20;;;22.00;82.80;;;;;;5053901;28;20531;-78
2021/08/02 12:33:10;;;;;;;1.70;0.28;;;22.00;82.50;;;;;;5053865;28;20163;-82
2021/08/02 12:35:37;;;;;;;0.65;0.65;;;22.00;82.00;;;;;;5053735;28;20362;-79
2021/08/02 12:38:04;;;;;;;0.30;0.30;;;21.80;82.30;;;;;;5053266;28;20053;-79
2021/08/02 12:40:30;;;;;;;0.68;0.63;;;21.70;82.60;;;;;;5053683;28;20017;-79
2021/08/02 12:42:56;;;;;;;0.20;0.20;;;21.60;82.80;;;;;;5053586;28;20137;-80
2021/08/02 12:45:22;;;;;;;0.68;0.55;;;21.60;82.90;;;;;;5053449;28;20098;-79
2021/08/02 12:47:48;;;;;;;0.57;0.45;;;21.40;83.20;;;;;;5053652;28;20044;-79
2021/08/02 12:50:16;;;;;;;0.32;0.32;;;21.30;83.30;;;;;;5053577;28;20013;-79
2021/08/02 12:52:44;;;;;;;0.57;0.28;;;21.10;83.30;;;;;;5053046;28;20028;-79